Terminal Aerodrome Forecast
Issued by NWS Austin/San Antonio, TX

Home | Current Version | Previous Version | Text Only | Print | Product List | Glossary On
Versions: 1 2 3 4 5 6 7 8 9 10 11 12 13 14 15 16
828
FTUS44 KEWX 261139
TAFDRT
TAF
KDRT 261139Z 2612/2712 11010KT P6SM OVC010
     FM261800 13008KT P6SM BKN020
     FM262000 14008KT P6SM SCT250
     FM270700 07005KT P6SM OVC025
     FM270800 06005KT P6SM OVC007=

USA.gov is the U.S. government's official web portal to all federal, state and local government web resources and services.